White Water, California
Current Conditions -  °F | °C
As of 12:53 PM on Friday 31 Oct 2014 (Local Time) from KPSP Reporting Station
Few Clouds Few Clouds  
Wind Chill: 83°   Ceiling: Unl
Heat Index: 83°   Visibility: 10mi
Dew Point: 43°   Wind: 3mph
Humidity: 24%   Direction: NA
Pressure: 29.83"   Gusts: NA
Location:  33.9276°N, 116.6932°W
Report Text: KPSP 311953Z VRB03KT 10SM FEW200 28/06 A2983 RMK AO2 SLP097 T02830061
Loading
Personal Weather Stations






























Interactive Weather Map
Tropical Storm Tracking
New forecast layout! Learn more

10-Day Weather Forecast

Advertisements
Track Severe Weather on mobile